Everton, United Kingdom
Current Conditions -  °F | °C
As of 6:50 AM on Friday 31 Oct 2014 (Local Time) from EGCN Reporting Station
Haze Haze  
Wind Chill: 59°   Ceiling: 1800
Heat Index: 59°   Visibility: 2.5mi
Dew Point: 57°   Wind: 10mph
Humidity: 94%   Direction: 170°S
Pressure: 29.97"   Gusts: NA
Location:  53.4°N, 0.9°W
Report Text: EGCN 310650Z 17009KT 4000 HZ BKN018 OVC023 15/14 Q1015
Loading
Personal Weather Stations






























Interactive Weather Map New forecast layout! Learn more

10-Day Weather Forecast

Advertisements
Track Severe Weather on mobile